Time;durP1;ratioP1;P1;durP2;ratioP2;P2;SDS_P1;SDS_P2;PMS_P1;PMS_P2;Temp;Humidity;BMP_temperature;BMP_pressure;BME280_temperature;BME280_humidity;BME280_pressure;Samples;Min_cycle;Max_cycle;Signal;HPM_P1;HPM_P2
2024/01/10 00:01:26;;;;;;;46.57;23.40;;;;;;;;;;5111819;28;20239;-81
2024/01/10 00:03:55;;;;;;;41.23;21.60;;;;;;;;;;5111666;28;20248;-81
2024/01/10 00:06:23;;;;;;;42.53;21.93;;;;;;;;;;5111767;28;20612;-82
2024/01/10 00:08:50;;;;;;;41.70;21.67;;;;;;;;;;5112067;28;20205;-81
2024/01/10 00:11:17;;;;;;;45.00;22.63;;;;;;;;;;5111831;28;20194;-82
2024/01/10 00:13:44;;;;;;;42.23;22.20;;;;;;;;;;5112116;28;20289;-82
2024/01/10 00:16:14;;;;;;;44.30;21.43;;;;;;;;;;5111875;28;20290;-81
2024/01/10 00:18:41;;;;;;;40.97;22.13;;;;;;;;;;5111452;28;20204;-81
2024/01/10 00:21:10;;;;;;;42.80;21.43;;;;;;;;;;5111420;28;20230;-82
2024/01/10 00:23:37;;;;;;;43.80;22.03;;;;;;;;;;5111914;28;20289;-81
2024/01/10 00:26:04;;;;;;;47.80;22.77;;;;;;;;;;5111804;28;20690;-81
2024/01/10 00:28:31;;;;;;;42.53;21.83;;;;;;;;;;5111248;28;20618;-82
2024/01/10 00:30:58;;;;;;;47.23;22.67;;;;;;;;;;5111092;28;20190;-81
2024/01/10 00:33:26;;;;;;;44.10;23.33;;;;;;;;;;5111719;28;20229;-82
2024/01/10 00:35:53;;;;;;;43.07;21.70;;;;;;;;;;5111461;28;20672;-82
2024/01/10 00:38:22;;;;;;;46.43;23.40;;;;;;;;;;5111890;28;20419;-82
2024/01/10 00:40:49;;;;;;;43.13;22.60;;;;;;;;;;5111495;28;20200;-82
2024/01/10 00:43:16;;;;;;;46.00;23.00;;;;;;;;;;5111374;28;20324;-82
2024/01/10 00:45:43;;;;;;;44.67;23.23;;;;;;;;;;5110733;28;20814;-82
2024/01/10 00:48:10;;;;;;;45.57;23.17;;;;;;;;;;5111839;28;20223;-82
2024/01/10 00:50:37;;;;;;;45.73;23.07;;;;;;;;;;5111199;28;20757;-81
2024/01/10 00:53:05;;;;;;;43.47;23.07;;;;;;;;;;5111508;28;20769;-82
2024/01/10 00:55:33;;;;;;;44.00;23.90;;;;;;;;;;5111133;28;20237;-82
2024/01/10 00:58:01;;;;;;;48.10;23.40;;;;;;;;;;5111821;28;20300;-82
2024/01/10 01:00:28;;;;;;;43.13;22.77;;;;;;;;;;5110776;28;20321;-82
2024/01/10 01:02:55;;;;;;;44.43;22.40;;;;;;;;;;5113439;28;20257;-82
2024/01/10 01:05:22;;;;;;;41.83;22.37;;;;;;;;;;5115617;28;20280;-82
2024/01/10 01:07:50;;;;;;;42.67;22.97;;;;;;;;;;5115033;28;20300;-82
2024/01/10 01:10:17;;;;;;;42.10;22.43;;;;;;;;;;5115083;28;20230;-81
2024/01/10 01:12:45;;;;;;;40.70;22.70;;;;;;;;;;5115326;28;20282;-80
2024/01/10 01:15:13;;;;;;;46.97;23.80;;;;;;;;;;5115253;28;20217;-81
2024/01/10 01:17:40;;;;;;;45.87;23.13;;;;;;;;;;5115220;28;20680;-82
2024/01/10 01:20:09;;;;;;;47.20;23.43;;;;;;;;;;5114875;28;20536;-80
2024/01/10 01:22:36;;;;;;;45.90;23.33;;;;;;;;;;5115027;28;20230;-81
2024/01/10 01:25:03;;;;;;;40.87;22.83;;;;;;;;;;5114936;28;20274;-81
2024/01/10 01:27:30;;;;;;;48.73;23.63;;;;;;;;;;5114753;28;20201;-81
2024/01/10 01:29:59;;;;;;;44.50;23.13;;;;;;;;;;5115084;28;20220;-81
2024/01/10 01:32:26;;;;;;;40.40;22.60;;;;;;;;;;5115007;28;20287;-82
2024/01/10 01:34:53;;;;;;;41.93;21.90;;;;;;;;;;5115071;28;20200;-81
2024/01/10 01:37:20;;;;;;;41.37;21.90;;;;;;;;;;5114220;28;20283;-82
2024/01/10 01:39:47;;;;;;;41.70;23.07;;;;;;;;;;5115166;28;20192;-82
2024/01/10 01:42:14;;;;;;;39.93;22.23;;;;;;;;;;5114859;28;20257;-82
2024/01/10 01:44:42;;;;;;;44.20;23.60;;;;;;;;;;5114610;28;20281;-81
2024/01/10 01:47:10;;;;;;;39.93;22.13;;;;;;;;;;5114583;28;20193;-82
2024/01/10 01:49:37;;;;;;;38.00;22.10;;;;;;;;;;5114278;28;20713;-81
2024/01/10 01:52:06;;;;;;;39.03;22.97;;;;;;;;;;5115104;28;20236;-82
2024/01/10 01:54:34;;;;;;;44.37;22.03;;;;;;;;;;5114332;28;20220;-82
2024/01/10 01:57:01;;;;;;;35.17;21.43;;;;;;;;;;5114494;28;20768;-82
2024/01/10 01:59:29;;;;;;;41.13;22.00;;;;;;;;;;5114075;28;20225;-81
2024/01/10 02:01:57;;;;;;;39.27;21.93;;;;;;;;;;5114486;28;20229;-81
2024/01/10 02:04:25;;;;;;;40.10;22.40;;;;;;;;;;5114676;28;20204;-82
2024/01/10 02:06:53;;;;;;;40.13;21.93;;;;;;;;;;5114151;28;20203;-81
2024/01/10 02:09:20;;;;;;;39.23;21.97;;;;;;;;;;5114188;28;20208;-82
2024/01/10 02:11:47;;;;;;;40.73;21.97;;;;;;;;;;5114225;28;20670;-82
2024/01/10 02:14:15;;;;;;;39.60;20.03;;;;;;;;;;5113069;28;20717;-82
2024/01/10 02:16:42;;;;;;;35.60;20.30;;;;;;;;;;5113679;28;20262;-82
2024/01/10 02:19:19;;;;;;;35.10;20.30;;;;;;;;;;5113870;28;20697;-81
2024/01/10 02:21:48;;;;;;;33.80;20.10;;;;;;;;;;5113473;28;20622;-81
2024/01/10 02:24:15;;;;;;;35.53;20.27;;;;;;;;;;5113725;28;20194;-81
2024/01/10 02:26:44;;;;;;;36.07;20.67;;;;;;;;;;5113778;28;20247;-82
2024/01/10 02:29:11;;;;;;;33.90;19.20;;;;;;;;;;5113495;28;20289;-82
2024/01/10 02:31:38;;;;;;;33.27;20.17;;;;;;;;;;5114453;28;20201;-81
2024/01/10 02:34:05;;;;;;;35.57;20.20;;;;;;;;;;5113564;28;20201;-82
2024/01/10 02:36:33;;;;;;;32.80;19.23;;;;;;;;;;5113363;28;20289;-81
2024/01/10 02:39:00;;;;;;;33.23;19.03;;;;;;;;;;5114012;28;20295;-81
2024/01/10 02:41:28;;;;;;;35.87;19.27;;;;;;;;;;5113754;28;20190;-80
2024/01/10 02:43:58;;;;;;;35.57;19.17;;;;;;;;;;5113210;28;20899;-82
2024/01/10 02:46:27;;;;;;;32.70;18.93;;;;;;;;;;5113329;28;20693;-82
2024/01/10 02:48:55;;;;;;;36.03;20.40;;;;;;;;;;5113351;28;20193;-81
2024/01/10 02:51:22;;;;;;;31.30;19.17;;;;;;;;;;5113129;28;20196;-81
2024/01/10 02:53:49;;;;;;;32.40;18.70;;;;;;;;;;5113517;28;20228;-80
2024/01/10 02:56:17;;;;;;;32.97;19.37;;;;;;;;;;5105452;28;20256;-81
2024/01/10 02:58:44;;;;;;;34.83;19.90;;;;;;;;;;5095020;28;20285;-82
2024/01/10 03:01:15;;;;;;;32.43;18.93;;;;;;;;;;5092255;28;20287;-81
2024/01/10 03:03:43;;;;;;;35.20;20.00;;;;;;;;;;5091054;28;20706;-81
2024/01/10 03:06:10;;;;;;;32.00;18.93;;;;;;;;;;5093316;28;20281;-81
2024/01/10 03:08:37;;;;;;;32.43;19.37;;;;;;;;;;5092635;28;20220;-81
2024/01/10 03:11:04;;;;;;;33.17;19.07;;;;;;;;;;5091975;28;20277;-82
2024/01/10 03:13:32;;;;;;;34.70;19.17;;;;;;;;;;5092846;28;20277;-81
2024/01/10 03:16:00;;;;;;;33.00;19.27;;;;;;;;;;5092599;28;20206;-81
2024/01/10 03:18:29;;;;;;;33.03;18.47;;;;;;;;;;5092292;28;20238;-82
2024/01/10 03:20:56;;;;;;;34.23;19.00;;;;;;;;;;5092458;28;20232;-81
2024/01/10 03:23:24;;;;;;;30.43;17.87;;;;;;;;;;5092649;28;20234;-82
2024/01/10 03:25:51;;;;;;;34.20;19.13;;;;;;;;;;5092117;28;20217;-81
2024/01/10 03:28:19;;;;;;;31.90;19.00;;;;;;;;;;5092003;28;20202;-80
2024/01/10 03:30:46;;;;;;;33.87;19.47;;;;;;;;;;5092561;28;20609;-82
2024/01/10 03:33:15;;;;;;;31.23;18.60;;;;;;;;;;5092098;28;20236;-81
2024/01/10 03:35:44;;;;;;;33.43;19.17;;;;;;;;;;5095185;28;20197;-82
2024/01/10 03:38:12;;;;;;;33.67;18.60;;;;;;;;;;5112922;28;20197;-81
2024/01/10 03:40:39;;;;;;;31.50;18.63;;;;;;;;;;5112147;28;20232;-81
2024/01/10 03:43:08;;;;;;;32.53;19.27;;;;;;;;;;5112227;28;20267;-81
2024/01/10 03:45:35;;;;;;;33.33;19.10;;;;;;;;;;5112599;28;20206;-80
2024/01/10 03:48:02;;;;;;;32.67;19.63;;;;;;;;;;5103786;28;20225;-81
2024/01/10 03:50:29;;;;;;;36.90;20.87;;;;;;;;;;5095965;28;20230;-82
2024/01/10 03:52:58;;;;;;;32.33;19.30;;;;;;;;;;5092043;28;20220;-82
2024/01/10 03:55:25;;;;;;;33.83;19.73;;;;;;;;;;5091556;28;20241;-81
2024/01/10 03:57:52;;;;;;;30.80;19.20;;;;;;;;;;5091641;28;20667;-81
2024/01/10 04:00:20;;;;;;;33.13;19.87;;;;;;;;;;5091698;28;20308;-82
2024/01/10 04:02:47;;;;;;;36.33;20.03;;;;;;;;;;5091744;28;20253;-81
2024/01/10 04:05:14;;;;;;;32.40;20.17;;;;;;;;;;5092131;28;20277;-82
2024/01/10 04:07:43;;;;;;;33.63;19.83;;;;;;;;;;5091590;28;20285;-81
2024/01/10 04:10:13;;;;;;;34.60;19.00;;;;;;;;;;5091458;28;20198;-81
2024/01/10 04:12:40;;;;;;;36.93;19.83;;;;;;;;;;5091307;28;20202;-79
2024/01/10 04:15:08;;;;;;;31.60;19.20;;;;;;;;;;5091294;28;20281;-82
2024/01/10 04:17:35;;;;;;;33.43;19.67;;;;;;;;;;5091869;28;20229;-80
2024/01/10 04:20:03;;;;;;;33.13;19.47;;;;;;;;;;5091206;28;20639;-81
2024/01/10 04:22:30;;;;;;;37.80;20.43;;;;;;;;;;5091332;28;20190;-82
2024/01/10 04:24:59;;;;;;;35.43;19.57;;;;;;;;;;5105567;28;20700;-81
2024/01/10 04:27:28;;;;;;;34.90;19.90;;;;;;;;;;5111418;28;20673;-81
2024/01/10 04:29:55;;;;;;;36.07;20.00;;;;;;;;;;5111694;28;20252;-81
2024/01/10 04:32:22;;;;;;;35.10;19.80;;;;;;;;;;5112198;28;20276;-80
2024/01/10 04:34:49;;;;;;;35.80;19.53;;;;;;;;;;5111723;28;20932;-82
2024/01/10 04:37:17;;;;;;;33.27;18.93;;;;;;;;;;5112695;28;20201;-81
2024/01/10 04:39:44;;;;;;;34.30;20.10;;;;;;;;;;5115664;28;20280;-80
2024/01/10 04:42:12;;;;;;;37.17;20.27;;;;;;;;;;5116358;28;20258;-82
2024/01/10 04:44:40;;;;;;;37.03;20.07;;;;;;;;;;5116048;28;20327;-82
2024/01/10 04:47:09;;;;;;;35.93;20.10;;;;;;;;;;5115407;28;20229;-82
2024/01/10 04:49:36;;;;;;;32.07;19.03;;;;;;;;;;5116174;28;20295;-81
2024/01/10 04:52:04;;;;;;;34.17;19.50;;;;;;;;;;5115363;28;20229;-82
2024/01/10 04:54:31;;;;;;;35.13;19.80;;;;;;;;;;5116072;28;20577;-82
2024/01/10 04:56:58;;;;;;;35.63;20.93;;;;;;;;;;5115995;28;20270;-81
2024/01/10 04:59:25;;;;;;;34.70;20.60;;;;;;;;;;5115328;28;20719;-81
2024/01/10 05:01:54;;;;;;;35.90;20.17;;;;;;;;;;5115341;28;20612;-82
2024/01/10 05:04:21;;;;;;;37.13;20.50;;;;;;;;;;5115474;28;20225;-82
2024/01/10 05:06:49;;;;;;;34.37;20.10;;;;;;;;;;5115218;28;20296;-82
2024/01/10 05:09:16;;;;;;;37.17;21.20;;;;;;;;;;5115120;28;20217;-82
2024/01/10 05:11:43;;;;;;;34.57;19.80;;;;;;;;;;5115665;28;20280;-82
2024/01/10 05:14:11;;;;;;;33.83;19.57;;;;;;;;;;5115323;28;20281;-82
2024/01/10 05:16:38;;;;;;;36.77;20.97;;;;;;;;;;5115112;28;20197;-82
2024/01/10 05:19:07;;;;;;;38.63;21.43;;;;;;;;;;5114991;28;20204;-81
2024/01/10 05:21:34;;;;;;;34.40;20.13;;;;;;;;;;5102879;28;20296;-82
2024/01/10 05:24:01;;;;;;;32.83;19.80;;;;;;;;;;5101057;28;20225;-82
2024/01/10 05:26:28;;;;;;;33.50;19.57;;;;;;;;;;5114621;28;20198;-82
2024/01/10 05:28:55;;;;;;;34.97;20.40;;;;;;;;;;5100931;28;20289;-81
2024/01/10 05:31:23;;;;;;;37.13;20.87;;;;;;;;;;5094926;28;20201;-82
2024/01/10 05:33:50;;;;;;;36.60;19.33;;;;;;;;;;5094233;28;20230;-81
2024/01/10 05:36:18;;;;;;;34.77;19.73;;;;;;;;;;5101905;28;20233;-82
2024/01/10 05:38:45;;;;;;;35.40;20.03;;;;;;;;;;5114721;28;20261;-82
2024/01/10 05:41:14;;;;;;;33.43;20.27;;;;;;;;;;5115364;28;20627;-82
2024/01/10 05:43:41;;;;;;;35.80;20.60;;;;;;;;;;5114853;28;20226;-82
2024/01/10 05:46:09;;;;;;;34.30;20.63;;;;;;;;;;5114542;28;20194;-82
2024/01/10 05:48:36;;;;;;;39.17;20.80;;;;;;;;;;5113571;28;20201;-82
2024/01/10 05:51:04;;;;;;;37.10;21.40;;;;;;;;;;5114237;28;20193;-81
2024/01/10 05:53:32;;;;;;;36.03;20.33;;;;;;;;;;5114416;28;20193;-79
2024/01/10 05:56:00;;;;;;;37.60;21.20;;;;;;;;;;5114320;28;20658;-81
2024/01/10 05:58:27;;;;;;;36.23;20.33;;;;;;;;;;5114328;28;20669;-81
2024/01/10 06:00:54;;;;;;;36.07;21.00;;;;;;;;;;5114059;28;20329;-81
2024/01/10 06:03:22;;;;;;;37.60;20.83;;;;;;;;;;5114286;28;20220;-82
2024/01/10 06:05:49;;;;;;;37.33;20.93;;;;;;;;;;5113748;28;20710;-83
2024/01/10 06:08:16;;;;;;;37.23;20.50;;;;;;;;;;5114994;28;20281;-83
2024/01/10 06:10:45;;;;;;;36.10;20.57;;;;;;;;;;5114327;28;20296;-82
2024/01/10 06:13:12;;;;;;;35.63;20.03;;;;;;;;;;5114142;28;20229;-82
2024/01/10 06:15:39;;;;;;;37.80;21.13;;;;;;;;;;5114374;28;20248;-82
2024/01/10 06:18:07;;;;;;;36.63;19.67;;;;;;;;;;5113944;28;20229;-81
2024/01/10 06:20:37;;;;;;;35.77;20.40;;;;;;;;;;5113779;28;20193;-81
2024/01/10 06:23:05;;;;;;;37.77;20.83;;;;;;;;;;5114012;28;20280;-80
2024/01/10 06:25:32;;;;;;;36.27;19.87;;;;;;;;;;5115813;28;20652;-84
2024/01/10 06:28:00;;;;;;;35.60;21.07;;;;;;;;;;5114979;28;20649;-86
2024/01/10 06:30:28;;;;;;;35.10;20.20;;;;;;;;;;5114770;28;20622;-87
2024/01/10 06:32:55;;;;;;;40.67;22.93;;;;;;;;;;5115423;28;20196;-86
2024/01/10 06:35:22;;;;;;;62.60;35.67;;;;;;;;;;5114603;28;20235;-87
2024/01/10 06:37:50;;;;;;;46.10;23.83;;;;;;;;;;5113504;28;20228;-86
2024/01/10 06:40:17;;;;;;;48.10;27.93;;;;;;;;;;5111853;28;20299;-87
2024/01/10 06:42:44;;;;;;;45.07;26.40;;;;;;;;;;5113987;28;20232;-86
2024/01/10 06:45:14;;;;;;;41.83;25.50;;;;;;;;;;5096409;28;20264;-82
2024/01/10 06:47:41;;;;;;;41.10;26.10;;;;;;;;;;5113480;28;20288;-84
2024/01/10 06:50:09;;;;;;;38.53;22.30;;;;;;;;;;5113549;28;20198;-85
2024/01/10 06:52:37;;;;;;;53.07;30.53;;;;;;;;;;5115001;27;20280;-84
2024/01/10 06:55:05;;;;;;;48.37;28.23;;;;;;;;;;5122045;27;20243;-82
2024/01/10 06:57:32;;;;;;;85.93;48.20;;;;;;;;;;5127864;27;20189;-83
2024/01/10 06:59:59;;;;;;;79.60;43.37;;;;;;;;;;5133356;27;20666;-84
2024/01/10 07:02:28;;;;;;;71.27;38.67;;;;;;;;;;5113317;27;20287;-84
2024/01/10 07:04:55;;;;;;;45.10;24.83;;;;;;;;;;5109811;28;20235;-85
2024/01/10 07:07:22;;;;;;;80.80;43.77;;;;;;;;;;5105264;28;20190;-85
2024/01/10 07:09:50;;;;;;;61.53;36.07;;;;;;;;;;5117667;27;20202;-84
2024/01/10 07:12:17;;;;;;;83.87;52.37;;;;;;;;;;5121034;27;20236;-85
2024/01/10 07:14:44;;;;;;;50.37;33.00;;;;;;;;;;5092832;28;20286;-84
2024/01/10 07:17:11;;;;;;;43.77;25.40;;;;;;;;;;5106550;28;20827;-84
2024/01/10 07:19:41;;;;;;;46.33;28.07;;;;;;;;;;5113543;28;20232;-84
2024/01/10 07:22:08;;;;;;;59.23;36.90;;;;;;;;;;5113044;28;20197;-84
2024/01/10 07:24:36;;;;;;;97.37;54.47;;;;;;;;;;5113200;28;20213;-85
2024/01/10 07:27:03;;;;;;;82.90;49.93;;;;;;;;;;5124101;27;20769;-85
2024/01/10 07:29:31;;;;;;;44.47;25.97;;;;;;;;;;5133318;27;20224;-85
2024/01/10 07:31:58;;;;;;;39.57;22.93;;;;;;;;;;5132685;27;20224;-84
2024/01/10 07:34:25;;;;;;;41.17;22.93;;;;;;;;;;5133322;27;20287;-84
2024/01/10 07:36:55;;;;;;;45.70;27.50;;;;;;;;;;5120651;27;20285;-86
2024/01/10 07:39:22;;;;;;;50.97;31.00;;;;;;;;;;5112334;28;20286;-85
2024/01/10 07:41:50;;;;;;;40.40;22.57;;;;;;;;;;5112504;27;20657;-86
2024/01/10 07:44:17;;;;;;;43.43;25.33;;;;;;;;;;5112788;28;20221;-85
2024/01/10 07:46:44;;;;;;;42.00;22.83;;;;;;;;;;5112842;28;20281;-85
2024/01/10 07:49:11;;;;;;;37.93;21.63;;;;;;;;;;5113244;28;20286;-84
2024/01/10 07:51:38;;;;;;;39.30;22.50;;;;;;;;;;5112589;28;20196;-86
2024/01/10 07:54:07;;;;;;;37.57;21.83;;;;;;;;;;5112743;28;20798;-84
2024/01/10 07:56:34;;;;;;;48.40;27.67;;;;;;;;;;5112466;28;20260;-85
2024/01/10 07:59:01;;;;;;;171.33;87.80;;;;;;;;;;5112598;28;20194;-85
2024/01/10 08:01:29;;;;;;;98.40;49.83;;;;;;;;;;5126206;27;20227;-85
2024/01/10 08:03:56;;;;;;;57.10;33.13;;;;;;;;;;5132722;27;20316;-84
2024/01/10 08:06:24;;;;;;;58.07;31.90;;;;;;;;;;5133037;27;20199;-85
2024/01/10 08:08:51;;;;;;;50.70;28.50;;;;;;;;;;5132398;27;20200;-84
2024/01/10 08:11:20;;;;;;;50.53;28.13;;;;;;;;;;5132163;27;20197;-85
2024/01/10 08:13:47;;;;;;;60.90;33.07;;;;;;;;;;5132591;27;20231;-84
2024/01/10 08:16:15;;;;;;;68.67;40.23;;;;;;;;;;5124536;27;20225;-85
2024/01/10 08:18:42;;;;;;;73.27;38.23;;;;;;;;;;5112427;28;20279;-84
2024/01/10 08:21:09;;;;;;;74.17;41.30;;;;;;;;;;5112365;28;20197;-85
2024/01/10 08:23:36;;;;;;;123.73;59.93;;;;;;;;;;5112513;28;20276;-85
2024/01/10 08:26:04;;;;;;;83.50;48.10;;;;;;;;;;5112279;28;20298;-82
2024/01/10 08:28:33;;;;;;;45.87;25.17;;;;;;;;;;5112116;28;20205;-82
2024/01/10 08:31:01;;;;;;;44.40;26.30;;;;;;;;;;5111831;28;20241;-84
2024/01/10 08:33:28;;;;;;;40.10;22.93;;;;;;;;;;5110980;28;20197;-83
2024/01/10 08:35:56;;;;;;;44.73;22.33;;;;;;;;;;5110519;28;20220;-83
2024/01/10 08:38:23;;;;;;;45.00;23.00;;;;;;;;;;5111537;28;20191;-83
2024/01/10 08:40:51;;;;;;;40.10;22.87;;;;;;;;;;5109760;28;20193;-82
2024/01/10 08:43:18;;;;;;;40.97;22.87;;;;;;;;;;5111578;28;20232;-82
2024/01/10 08:45:47;;;;;;;39.47;22.03;;;;;;;;;;5110625;28;20237;-81
2024/01/10 08:48:15;;;;;;;39.00;22.20;;;;;;;;;;5111753;28;20282;-83
2024/01/10 08:50:42;;;;;;;40.93;22.60;;;;;;;;;;5111686;28;20312;-82
2024/01/10 08:53:09;;;;;;;40.47;22.73;;;;;;;;;;5111324;28;20239;-82
2024/01/10 08:55:37;;;;;;;41.17;24.20;;;;;;;;;;5111581;28;20225;-83
2024/01/10 08:58:04;;;;;;;37.47;21.10;;;;;;;;;;5112263;28;20615;-84
2024/01/10 09:00:32;;;;;;;39.10;22.67;;;;;;;;;;5111134;28;20230;-84
2024/01/10 09:03:01;;;;;;;40.33;21.77;;;;;;;;;;5111754;28;20202;-83
2024/01/10 09:05:28;;;;;;;38.13;21.33;;;;;;;;;;5111560;28;20252;-83
2024/01/10 09:07:55;;;;;;;38.53;21.23;;;;;;;;;;5111347;28;20220;-83
2024/01/10 09:10:22;;;;;;;36.20;20.53;;;;;;;;;;5127184;27;20200;-84
2024/01/10 09:12:50;;;;;;;38.63;20.93;;;;;;;;;;5110518;28;20200;-84
2024/01/10 09:15:17;;;;;;;38.10;21.33;;;;;;;;;;5111208;28;20260;-84
2024/01/10 09:17:45;;;;;;;38.63;21.70;;;;;;;;;;5111738;28;20221;-83
2024/01/10 09:20:14;;;;;;;38.23;20.90;;;;;;;;;;5112117;28;20615;-84
2024/01/10 09:22:42;;;;;;;36.27;21.10;;;;;;;;;;5099307;28;20678;-85
2024/01/10 09:25:09;;;;;;;38.43;21.60;;;;;;;;;;5094876;28;20244;-84
2024/01/10 09:27:37;;;;;;;38.40;20.83;;;;;;;;;;5102217;28;20305;-83
2024/01/10 09:30:08;;;;;;;37.57;20.70;;;;;;;;;;5115368;28;20198;-82
2024/01/10 09:32:35;;;;;;;37.07;19.93;;;;;;;;;;5115364;28;20226;-86
2024/01/10 09:35:03;;;;;;;39.40;21.43;;;;;;;;;;5115649;28;20194;-84
2024/01/10 09:37:31;;;;;;;35.20;20.60;;;;;;;;;;5105145;28;20211;-83
2024/01/10 09:39:59;;;;;;;39.13;20.60;;;;;;;;;;5094798;28;20203;-85
2024/01/10 09:42:26;;;;;;;39.40;21.03;;;;;;;;;;5093787;28;20281;-84
2024/01/10 09:44:53;;;;;;;36.57;21.63;;;;;;;;;;5094260;28;20222;-85
2024/01/10 09:47:21;;;;;;;37.20;20.30;;;;;;;;;;5094991;28;20227;-84
2024/01/10 09:49:48;;;;;;;37.17;20.93;;;;;;;;;;5095774;28;20196;-85
2024/01/10 09:52:18;;;;;;;34.97;20.77;;;;;;;;;;5095610;28;20557;-85
2024/01/10 09:54:47;;;;;;;36.47;20.03;;;;;;;;;;5095481;28;20214;-85
2024/01/10 09:57:15;;;;;;;37.37;21.00;;;;;;;;;;5094724;28;20293;-84
2024/01/10 09:59:47;;;;;;;37.97;20.93;;;;;;;;;;5095560;28;20326;-84
2024/01/10 10:02:16;;;;;;;45.40;26.00;;;;;;;;;;5138382;27;20194;-83
2024/01/10 10:04:47;;;;;;;40.30;24.17;;;;;;;;;;5142393;27;20253;-81
2024/01/10 10:07:14;;;;;;;37.73;22.33;;;;;;;;;;5135930;27;20284;-81
2024/01/10 10:09:42;;;;;;;39.70;23.10;;;;;;;;;;5134551;27;20551;-81
2024/01/10 10:12:11;;;;;;;35.97;21.50;;;;;;;;;;5134606;27;20199;-81
2024/01/10 10:14:38;;;;;;;36.70;21.07;;;;;;;;;;5134947;27;20247;-81
2024/01/10 10:17:15;;;;;;;38.30;21.27;;;;;;;;;;5119107;27;20260;-81
2024/01/10 10:19:43;;;;;;;38.20;21.93;;;;;;;;;;5114220;28;20191;-81
2024/01/10 10:22:10;;;;;;;35.87;20.57;;;;;;;;;;5114762;28;20201;-81
2024/01/10 10:24:38;;;;;;;38.03;21.27;;;;;;;;;;5114284;28;20278;-83
2024/01/10 10:27:10;;;;;;;37.00;21.20;;;;;;;;;;5113832;28;20238;-82
2024/01/10 10:29:39;;;;;;;41.07;22.40;;;;;;;;;;5114373;28;20281;-84
2024/01/10 10:32:08;;;;;;;42.93;27.13;;;;;;;;;;5114635;28;20248;-83
2024/01/10 10:34:36;;;;;;;40.10;22.77;;;;;;;;;;5113986;28;20198;-83
2024/01/10 10:37:03;;;;;;;39.93;22.17;;;;;;;;;;5114230;28;20222;-83
2024/01/10 10:39:31;;;;;;;38.37;23.33;;;;;;;;;;5114283;28;20536;-82
2024/01/10 10:41:59;;;;;;;43.00;26.97;;;;;;;;;;5114327;28;20663;-83
2024/01/10 10:44:29;;;;;;;56.17;35.23;;;;;;;;;;5114503;28;20213;-83
2024/01/10 10:46:57;;;;;;;37.70;21.73;;;;;;;;;;5114417;28;20231;-82
2024/01/10 10:49:31;;;;;;;36.80;21.37;;;;;;;;;;5113786;28;20198;-83
2024/01/10 10:51:59;;;;;;;39.43;22.03;;;;;;;;;;5113019;28;20304;-83
2024/01/10 10:54:27;;;;;;;39.00;21.97;;;;;;;;;;5113088;28;20228;-82
2024/01/10 10:56:55;;;;;;;36.33;20.77;;;;;;;;;;5113181;28;20282;-83
2024/01/10 10:59:22;;;;;;;36.77;21.27;;;;;;;;;;5112996;28;20268;-83
2024/01/10 11:01:51;;;;;;;39.10;21.90;;;;;;;;;;5112877;28;20218;-84
2024/01/10 11:04:18;;;;;;;37.57;21.20;;;;;;;;;;5113274;28;20224;-83
2024/01/10 11:06:46;;;;;;;40.37;22.23;;;;;;;;;;5112956;28;20312;-81
2024/01/10 11:09:17;;;;;;;37.00;21.27;;;;;;;;;;5112390;28;20196;-84
2024/01/10 11:11:51;;;;;;;40.57;22.37;;;;;;;;;;5112716;28;20289;-84
2024/01/10 11:14:23;;;;;;;39.60;22.27;;;;;;;;;;5113057;28;20248;-83
2024/01/10 11:16:58;;;;;;;41.03;22.63;;;;;;;;;;5112574;28;20288;-83
2024/01/10 11:19:45;;;;;;;40.63;22.33;;;;;;;;;;5112913;28;20221;-82
2024/01/10 11:22:18;;;;;;;36.57;22.20;;;;;;;;;;5112175;28;20194;-82
2024/01/10 11:24:45;;;;;;;41.47;22.90;;;;;;;;;;5112634;28;20194;-82
2024/01/10 11:27:13;;;;;;;40.33;22.70;;;;;;;;;;5112078;28;20196;-83
2024/01/10 11:29:41;;;;;;;39.50;23.57;;;;;;;;;;5112540;28;20290;-82
2024/01/10 11:32:14;;;;;;;41.37;23.40;;;;;;;;;;5112565;28;20650;-82
2024/01/10 11:34:50;;;;;;;46.23;27.37;;;;;;;;;;5112470;28;20234;-81
2024/01/10 11:37:17;;;;;;;42.97;24.53;;;;;;;;;;5111779;28;20244;-82
2024/01/10 11:39:44;;;;;;;56.60;35.30;;;;;;;;;;5111701;28;20288;-81
2024/01/10 11:42:12;;;;;;;48.10;30.17;;;;;;;;;;5112531;28;20198;-83
2024/01/10 11:44:49;;;;;;;44.10;25.90;;;;;;;;;;5111709;28;20194;-83
2024/01/10 11:47:19;;;;;;;45.90;26.40;;;;;;;;;;5111648;28;20207;-82
2024/01/10 11:49:55;;;;;;;45.83;25.73;;;;;;;;;;5109392;28;20239;-84
2024/01/10 11:52:23;;;;;;;47.03;28.67;;;;;;;;;;5112318;28;20757;-82
2024/01/10 11:54:51;;;;;;;47.60;25.93;;;;;;;;;;5112082;28;20538;-83
2024/01/10 11:57:22;;;;;;;48.73;31.67;;;;;;;;;;5112019;28;20290;-85
2024/01/10 11:59:51;;;;;;;40.80;23.93;;;;;;;;;;5111908;28;20228;-83
2024/01/10 12:02:20;;;;;;;46.23;27.17;;;;;;;;;;5111915;28;20286;-83
2024/01/10 12:04:50;;;;;;;49.17;29.77;;;;;;;;;;5103451;28;20230;-84
2024/01/10 12:07:18;;;;;;;45.27;24.80;;;;;;;;;;5114103;28;20572;-81
2024/01/10 12:09:45;;;;;;;45.83;24.73;;;;;;;;;;5101178;28;20210;-80
2024/01/10 12:12:13;;;;;;;44.03;25.90;;;;;;;;;;5115487;28;20662;-83
2024/01/10 12:14:41;;;;;;;44.87;24.37;;;;;;;;;;5109377;28;20228;-82
2024/01/10 12:17:08;;;;;;;47.93;30.27;;;;;;;;;;5110990;28;20199;-82
2024/01/10 12:19:38;;;;;;;50.33;30.17;;;;;;;;;;5110897;28;20196;-82
2024/01/10 12:22:06;;;;;;;47.37;26.30;;;;;;;;;;5110737;28;20576;-82
2024/01/10 12:24:33;;;;;;;42.33;23.57;;;;;;;;;;5090908;28;20234;-82
2024/01/10 12:27:01;;;;;;;48.77;28.27;;;;;;;;;;5091299;28;20329;-82
2024/01/10 12:29:28;;;;;;;52.50;30.97;;;;;;;;;;5090282;28;20253;-82
2024/01/10 12:31:55;;;;;;;45.50;25.63;;;;;;;;;;5091850;28;20220;-82
2024/01/10 12:34:23;;;;;;;45.33;26.50;;;;;;;;;;5110649;28;20690;-82
2024/01/10 12:36:56;;;;;;;66.90;39.93;;;;;;;;;;5098883;28;20211;-82
2024/01/10 12:39:25;;;;;;;56.00;31.50;;;;;;;;;;5091011;28;20223;-82
2024/01/10 12:41:52;;;;;;;52.07;29.30;;;;;;;;;;5091284;28;20201;-82
2024/01/10 12:44:20;;;;;;;62.03;34.73;;;;;;;;;;5100172;28;20287;-83
2024/01/10 12:46:52;;;;;;;68.83;43.60;;;;;;;;;;5112156;28;20228;-83
2024/01/10 12:49:20;;;;;;;69.70;38.67;;;;;;;;;;5108783;28;20592;-80
2024/01/10 12:51:48;;;;;;;72.27;42.87;;;;;;;;;;5113208;28;20282;-83
2024/01/10 12:54:19;;;;;;;60.83;34.03;;;;;;;;;;5114120;28;20620;-83
2024/01/10 12:56:47;;;;;;;68.60;38.63;;;;;;;;;;5122488;28;20250;-83
2024/01/10 12:59:14;;;;;;;55.40;32.43;;;;;;;;;;5127906;27;20568;-83
2024/01/10 13:01:42;;;;;;;50.97;27.97;;;;;;;;;;5115458;27;20209;-82
2024/01/10 13:04:09;;;;;;;61.90;34.33;;;;;;;;;;5121395;27;20287;-82
2024/01/10 13:06:37;;;;;;;90.47;49.90;;;;;;;;;;5124377;27;20226;-81
2024/01/10 13:09:06;;;;;;;65.53;38.20;;;;;;;;;;5114870;27;20201;-82
2024/01/10 13:11:34;;;;;;;55.27;33.63;;;;;;;;;;5121874;27;20208;-82
2024/01/10 13:14:01;;;;;;;50.53;30.77;;;;;;;;;;5116755;27;20281;-81
2024/01/10 13:16:28;;;;;;;45.30;28.70;;;;;;;;;;5114082;28;20224;-82
2024/01/10 13:18:57;;;;;;;42.20;24.83;;;;;;;;;;5115369;27;20193;-82
2024/01/10 13:21:24;;;;;;;41.30;22.87;;;;;;;;;;5112495;27;20257;-82
2024/01/10 13:23:52;;;;;;;38.50;22.27;;;;;;;;;;5116204;27;20222;-81
2024/01/10 13:26:19;;;;;;;41.03;21.97;;;;;;;;;;5116849;27;20284;-82
2024/01/10 13:28:48;;;;;;;41.07;22.03;;;;;;;;;;5116529;27;20227;-82
2024/01/10 13:31:18;;;;;;;37.27;20.33;;;;;;;;;;5112708;28;20205;-82
2024/01/10 13:33:45;;;;;;;35.87;20.27;;;;;;;;;;5111708;28;20241;-82
2024/01/10 13:36:13;;;;;;;38.40;21.07;;;;;;;;;;5113003;28;20249;-83
2024/01/10 13:38:40;;;;;;;39.03;20.80;;;;;;;;;;5116004;27;20198;-83
2024/01/10 13:41:07;;;;;;;37.37;20.37;;;;;;;;;;5112361;27;20238;-83
2024/01/10 13:43:34;;;;;;;36.23;20.27;;;;;;;;;;5113665;28;20558;-83
2024/01/10 13:46:03;;;;;;;37.00;20.63;;;;;;;;;;5113862;28;20364;-83
2024/01/10 13:48:31;;;;;;;37.33;21.73;;;;;;;;;;5111828;28;20204;-82
2024/01/10 13:50:58;;;;;;;37.80;19.50;;;;;;;;;;5109533;27;20284;-82
2024/01/10 13:53:25;;;;;;;34.20;19.23;;;;;;;;;;5107075;28;20288;-82
2024/01/10 13:55:52;;;;;;;36.90;19.47;;;;;;;;;;5093491;28;20238;-83
2024/01/10 13:58:19;;;;;;;34.73;19.57;;;;;;;;;;5093397;28;20754;-82
2024/01/10 14:00:47;;;;;;;36.97;20.10;;;;;;;;;;5093436;28;20298;-82
2024/01/10 14:03:16;;;;;;;36.43;20.77;;;;;;;;;;5109596;27;20560;-83
2024/01/10 14:05:44;;;;;;;40.23;22.50;;;;;;;;;;5113920;27;20288;-83
2024/01/10 14:08:11;;;;;;;36.90;20.20;;;;;;;;;;5116687;27;20195;-83
2024/01/10 14:10:41;;;;;;;38.70;21.90;;;;;;;;;;5111884;28;20234;-81
2024/01/10 14:13:08;;;;;;;38.67;21.10;;;;;;;;;;5110337;28;20235;-82
2024/01/10 14:15:36;;;;;;;35.40;19.70;;;;;;;;;;5113722;28;20333;-81
2024/01/10 14:18:03;;;;;;;36.87;21.63;;;;;;;;;;5112931;28;20214;-80
2024/01/10 14:20:32;;;;;;;40.17;21.50;;;;;;;;;;5114427;27;20245;-81